sensor_id;sensor_type;location;lat;lon;timestamp;P1;durP1;ratioP1;P2;durP2;ratioP2
23282;SDS011;11810;51.178;3.878;2023-07-13T00:01:50;18.73;;;5.88;;
23282;SDS011;11810;51.178;3.878;2023-07-13T00:04:18;21.33;;;7.22;;
23282;SDS011;11810;51.178;3.878;2023-07-13T00:06:48;18.25;;;5.90;;
23282;SDS011;11810;51.178;3.878;2023-07-13T00:09:16;14.55;;;4.85;;
23282;SDS011;11810;51.178;3.878;2023-07-13T00:11:42;21.20;;;6.22;;
23282;SDS011;11810;51.178;3.878;2023-07-13T00:14:09;28.75;;;11.00;;
23282;SDS011;11810;51.178;3.878;2023-07-13T00:16:37;18.92;;;6.72;;
23282;SDS011;11810;51.178;3.878;2023-07-13T00:19:06;19.70;;;7.63;;
23282;SDS011;11810;51.178;3.878;2023-07-13T00:21:32;20.70;;;9.98;;
23282;SDS011;11810;51.178;3.878;2023-07-13T00:23:58;23.52;;;8.88;;
23282;SDS011;11810;51.178;3.878;2023-07-13T00:26:25;27.55;;;10.77;;
23282;SDS011;11810;51.178;3.878;2023-07-13T00:28:51;39.90;;;17.02;;
23282;SDS011;11810;51.178;3.878;2023-07-13T00:31:17;32.80;;;16.17;;
23282;SDS011;11810;51.178;3.878;2023-07-13T00:33:43;33.95;;;15.15;;
23282;SDS011;11810;51.178;3.878;2023-07-13T00:36:09;21.83;;;8.65;;
23282;SDS011;11810;51.178;3.878;2023-07-13T00:38:36;32.03;;;10.23;;
23282;SDS011;11810;51.178;3.878;2023-07-13T00:41:03;22.85;;;7.72;;
23282;SDS011;11810;51.178;3.878;2023-07-13T00:43:30;23.23;;;7.50;;
23282;SDS011;11810;51.178;3.878;2023-07-13T00:48:40;34.42;;;11.43;;
23282;SDS011;11810;51.178;3.878;2023-07-13T00:51:07;22.23;;;7.38;;
23282;SDS011;11810;51.178;3.878;2023-07-13T00:53:34;22.13;;;4.88;;
23282;SDS011;11810;51.178;3.878;2023-07-13T00:56:00;18.35;;;4.32;;
23282;SDS011;11810;51.178;3.878;2023-07-13T00:58:28;15.68;;;4.55;;
23282;SDS011;11810;51.178;3.878;2023-07-13T01:00:54;15.77;;;4.22;;
23282;SDS011;11810;51.178;3.878;2023-07-13T01:03:20;16.98;;;4.20;;
23282;SDS011;11810;51.178;3.878;2023-07-13T01:05:47;20.15;;;3.60;;
23282;SDS011;11810;51.178;3.878;2023-07-13T01:08:14;18.50;;;4.03;;
23282;SDS011;11810;51.178;3.878;2023-07-13T01:10:40;17.45;;;5.13;;
23282;SDS011;11810;51.178;3.878;2023-07-13T01:13:15;23.48;;;4.85;;
23282;SDS011;11810;51.178;3.878;2023-07-13T01:15:45;25.13;;;5.28;;
23282;SDS011;11810;51.178;3.878;2023-07-13T01:18:16;22.33;;;6.55;;
23282;SDS011;11810;51.178;3.878;2023-07-13T01:20:54;20.17;;;5.50;;
23282;SDS011;11810;51.178;3.878;2023-07-13T01:23:21;25.15;;;5.03;;
23282;SDS011;11810;51.178;3.878;2023-07-13T01:25:50;25.67;;;5.72;;
23282;SDS011;11810;51.178;3.878;2023-07-13T01:28:17;29.17;;;5.90;;
23282;SDS011;11810;51.178;3.878;2023-07-13T01:30:43;19.98;;;5.18;;
23282;SDS011;11810;51.178;3.878;2023-07-13T01:33:14;21.38;;;5.75;;
23282;SDS011;11810;51.178;3.878;2023-07-13T01:35:42;31.33;;;5.22;;
23282;SDS011;11810;51.178;3.878;2023-07-13T01:38:09;22.50;;;6.00;;
23282;SDS011;11810;51.178;3.878;2023-07-13T01:40:36;23.33;;;6.68;;
23282;SDS011;11810;51.178;3.878;2023-07-13T01:43:03;22.50;;;5.93;;
23282;SDS011;11810;51.178;3.878;2023-07-13T01:45:29;28.27;;;6.07;;
23282;SDS011;11810;51.178;3.878;2023-07-13T01:47:55;30.63;;;6.43;;
23282;SDS011;11810;51.178;3.878;2023-07-13T01:50:23;21.95;;;5.25;;
23282;SDS011;11810;51.178;3.878;2023-07-13T01:52:49;26.05;;;5.97;;
23282;SDS011;11810;51.178;3.878;2023-07-13T01:55:15;27.92;;;7.20;;
23282;SDS011;11810;51.178;3.878;2023-07-13T01:57:41;26.67;;;6.20;;
23282;SDS011;11810;51.178;3.878;2023-07-13T02:00:08;25.13;;;5.38;;
23282;SDS011;11810;51.178;3.878;2023-07-13T02:02:35;22.23;;;6.40;;
23282;SDS011;11810;51.178;3.878;2023-07-13T02:05:01;30.42;;;7.28;;
23282;SDS011;11810;51.178;3.878;2023-07-13T02:07:27;27.15;;;6.28;;
23282;SDS011;11810;51.178;3.878;2023-07-13T02:09:53;26.80;;;6.57;;
23282;SDS011;11810;51.178;3.878;2023-07-13T02:12:19;31.52;;;7.22;;
23282;SDS011;11810;51.178;3.878;2023-07-13T02:14:45;21.38;;;6.85;;
23282;SDS011;11810;51.178;3.878;2023-07-13T02:17:11;21.73;;;6.20;;
23282;SDS011;11810;51.178;3.878;2023-07-13T02:19:37;26.45;;;7.00;;
23282;SDS011;11810;51.178;3.878;2023-07-13T02:22:03;22.65;;;6.47;;
23282;SDS011;11810;51.178;3.878;2023-07-13T02:24:29;26.10;;;6.95;;
23282;SDS011;11810;51.178;3.878;2023-07-13T02:26:55;22.77;;;6.60;;
23282;SDS011;11810;51.178;3.878;2023-07-13T02:29:21;21.77;;;6.53;;
23282;SDS011;11810;51.178;3.878;2023-07-13T02:31:47;25.50;;;6.50;;
23282;SDS011;11810;51.178;3.878;2023-07-13T02:34:13;25.92;;;6.75;;
23282;SDS011;11810;51.178;3.878;2023-07-13T02:36:39;26.30;;;7.85;;
23282;SDS011;11810;51.178;3.878;2023-07-13T02:39:06;27.73;;;7.93;;
23282;SDS011;11810;51.178;3.878;2023-07-13T02:41:32;25.88;;;7.20;;
23282;SDS011;11810;51.178;3.878;2023-07-13T02:43:58;19.85;;;7.22;;
23282;SDS011;11810;51.178;3.878;2023-07-13T02:46:29;32.10;;;8.38;;
23282;SDS011;11810;51.178;3.878;2023-07-13T02:48:56;30.70;;;7.47;;
23282;SDS011;11810;51.178;3.878;2023-07-13T02:51:22;27.67;;;8.05;;
23282;SDS011;11810;51.178;3.878;2023-07-13T02:53:48;31.35;;;8.02;;
23282;SDS011;11810;51.178;3.878;2023-07-13T02:56:14;30.70;;;8.23;;
23282;SDS011;11810;51.178;3.878;2023-07-13T02:58:40;22.95;;;7.85;;
23282;SDS011;11810;51.178;3.878;2023-07-13T03:01:10;24.65;;;7.75;;
23282;SDS011;11810;51.178;3.878;2023-07-13T03:03:37;27.75;;;7.60;;
23282;SDS011;11810;51.178;3.878;2023-07-13T03:06:04;21.45;;;7.38;;
23282;SDS011;11810;51.178;3.878;2023-07-13T03:08:32;23.80;;;7.30;;
23282;SDS011;11810;51.178;3.878;2023-07-13T03:11:02;24.60;;;7.15;;
23282;SDS011;11810;51.178;3.878;2023-07-13T03:13:30;23.85;;;7.35;;
23282;SDS011;11810;51.178;3.878;2023-07-13T03:15:56;20.83;;;7.75;;
23282;SDS011;11810;51.178;3.878;2023-07-13T03:18:22;35.47;;;9.88;;
23282;SDS011;11810;51.178;3.878;2023-07-13T03:20:52;25.52;;;8.80;;
23282;SDS011;11810;51.178;3.878;2023-07-13T03:23:18;34.40;;;8.95;;
23282;SDS011;11810;51.178;3.878;2023-07-13T03:25:45;28.40;;;8.48;;
23282;SDS011;11810;51.178;3.878;2023-07-13T03:28:12;32.35;;;8.68;;
23282;SDS011;11810;51.178;3.878;2023-07-13T03:30:38;22.40;;;8.07;;
23282;SDS011;11810;51.178;3.878;2023-07-13T03:33:04;30.02;;;7.63;;
23282;SDS011;11810;51.178;3.878;2023-07-13T03:35:30;28.20;;;8.15;;
23282;SDS011;11810;51.178;3.878;2023-07-13T03:37:57;31.25;;;8.48;;
23282;SDS011;11810;51.178;3.878;2023-07-13T03:40:24;23.35;;;8.18;;
23282;SDS011;11810;51.178;3.878;2023-07-13T03:42:51;33.85;;;8.55;;
23282;SDS011;11810;51.178;3.878;2023-07-13T03:45:17;28.85;;;8.05;;
23282;SDS011;11810;51.178;3.878;2023-07-13T03:47:44;26.38;;;8.05;;
23282;SDS011;11810;51.178;3.878;2023-07-13T03:50:10;30.95;;;8.40;;
23282;SDS011;11810;51.178;3.878;2023-07-13T03:52:36;31.27;;;8.05;;
23282;SDS011;11810;51.178;3.878;2023-07-13T03:55:03;29.38;;;7.97;;
23282;SDS011;11810;51.178;3.878;2023-07-13T03:57:29;33.38;;;9.38;;
23282;SDS011;11810;51.178;3.878;2023-07-13T03:59:55;34.33;;;9.40;;
23282;SDS011;11810;51.178;3.878;2023-07-13T04:02:21;32.08;;;8.48;;
23282;SDS011;11810;51.178;3.878;2023-07-13T04:04:47;33.17;;;8.98;;
23282;SDS011;11810;51.178;3.878;2023-07-13T04:07:13;34.03;;;8.88;;
23282;SDS011;11810;51.178;3.878;2023-07-13T04:09:39;39.30;;;9.77;;
23282;SDS011;11810;51.178;3.878;2023-07-13T04:12:05;39.35;;;10.68;;
23282;SDS011;11810;51.178;3.878;2023-07-13T04:14:31;35.03;;;8.93;;
23282;SDS011;11810;51.178;3.878;2023-07-13T04:16:58;34.70;;;8.43;;
23282;SDS011;11810;51.178;3.878;2023-07-13T04:19:24;29.50;;;8.77;;
23282;SDS011;11810;51.178;3.878;2023-07-13T04:21:49;33.95;;;9.05;;
23282;SDS011;11810;51.178;3.878;2023-07-13T04:24:15;30.27;;;8.55;;
23282;SDS011;11810;51.178;3.878;2023-07-13T04:26:41;27.65;;;8.70;;
23282;SDS011;11810;51.178;3.878;2023-07-13T04:29:07;25.63;;;7.72;;
23282;SDS011;11810;51.178;3.878;2023-07-13T04:31:33;24.10;;;8.32;;
23282;SDS011;11810;51.178;3.878;2023-07-13T04:33:59;30.27;;;7.20;;
23282;SDS011;11810;51.178;3.878;2023-07-13T04:36:25;30.00;;;8.48;;
23282;SDS011;11810;51.178;3.878;2023-07-13T04:38:54;25.55;;;7.45;;
23282;SDS011;11810;51.178;3.878;2023-07-13T04:41:20;33.65;;;7.40;;
23282;SDS011;11810;51.178;3.878;2023-07-13T04:43:47;31.17;;;8.15;;
23282;SDS011;11810;51.178;3.878;2023-07-13T04:46:14;26.63;;;7.45;;
23282;SDS011;11810;51.178;3.878;2023-07-13T04:48:42;29.80;;;7.45;;
23282;SDS011;11810;51.178;3.878;2023-07-13T04:51:09;24.45;;;7.70;;
23282;SDS011;11810;51.178;3.878;2023-07-13T04:53:35;28.67;;;8.05;;
23282;SDS011;11810;51.178;3.878;2023-07-13T04:56:01;40.70;;;8.32;;
23282;SDS011;11810;51.178;3.878;2023-07-13T04:58:28;26.92;;;7.53;;
23282;SDS011;11810;51.178;3.878;2023-07-13T05:00:58;24.35;;;6.45;;
23282;SDS011;11810;51.178;3.878;2023-07-13T05:03:28;22.92;;;7.28;;
23282;SDS011;11810;51.178;3.878;2023-07-13T05:05:55;27.80;;;5.88;;
23282;SDS011;11810;51.178;3.878;2023-07-13T05:08:23;21.90;;;6.60;;
23282;SDS011;11810;51.178;3.878;2023-07-13T05:10:49;24.88;;;6.63;;
23282;SDS011;11810;51.178;3.878;2023-07-13T05:13:15;30.50;;;6.45;;
23282;SDS011;11810;51.178;3.878;2023-07-13T05:15:41;24.77;;;6.50;;
23282;SDS011;11810;51.178;3.878;2023-07-13T05:18:07;28.45;;;6.15;;
23282;SDS011;11810;51.178;3.878;2023-07-13T05:20:33;19.33;;;5.72;;
23282;SDS011;11810;51.178;3.878;2023-07-13T05:22:59;23.73;;;6.05;;
23282;SDS011;11810;51.178;3.878;2023-07-13T05:25:25;19.70;;;6.07;;
23282;SDS011;11810;51.178;3.878;2023-07-13T05:27:51;21.90;;;5.50;;
23282;SDS011;11810;51.178;3.878;2023-07-13T05:30:17;20.55;;;5.40;;
23282;SDS011;11810;51.178;3.878;2023-07-13T05:32:43;23.58;;;5.88;;
23282;SDS011;11810;51.178;3.878;2023-07-13T05:35:09;23.30;;;6.38;;
23282;SDS011;11810;51.178;3.878;2023-07-13T05:37:36;27.33;;;6.38;;
23282;SDS011;11810;51.178;3.878;2023-07-13T05:40:03;25.55;;;6.18;;
23282;SDS011;11810;51.178;3.878;2023-07-13T05:42:29;22.80;;;6.15;;
23282;SDS011;11810;51.178;3.878;2023-07-13T05:44:56;19.63;;;6.18;;
23282;SDS011;11810;51.178;3.878;2023-07-13T05:47:22;27.70;;;6.53;;
23282;SDS011;11810;51.178;3.878;2023-07-13T05:49:48;21.30;;;6.38;;
23282;SDS011;11810;51.178;3.878;2023-07-13T05:52:14;24.35;;;7.07;;
23282;SDS011;11810;51.178;3.878;2023-07-13T05:54:40;25.50;;;6.45;;
23282;SDS011;11810;51.178;3.878;2023-07-13T05:57:06;20.83;;;5.80;;
23282;SDS011;11810;51.178;3.878;2023-07-13T05:59:32;28.52;;;6.93;;
23282;SDS011;11810;51.178;3.878;2023-07-13T06:01:58;26.67;;;6.68;;
23282;SDS011;11810;51.178;3.878;2023-07-13T06:04:24;21.80;;;6.45;;
23282;SDS011;11810;51.178;3.878;2023-07-13T06:06:50;25.30;;;6.60;;
23282;SDS011;11810;51.178;3.878;2023-07-13T06:09:16;27.40;;;6.93;;
23282;SDS011;11810;51.178;3.878;2023-07-13T06:11:42;23.30;;;6.47;;
23282;SDS011;11810;51.178;3.878;2023-07-13T06:14:08;18.42;;;6.57;;
23282;SDS011;11810;51.178;3.878;2023-07-13T06:16:34;31.73;;;7.45;;
23282;SDS011;11810;51.178;3.878;2023-07-13T06:19:00;24.80;;;6.15;;
23282;SDS011;11810;51.178;3.878;2023-07-13T06:21:26;25.88;;;6.72;;
23282;SDS011;11810;51.178;3.878;2023-07-13T06:23:52;23.60;;;7.00;;
23282;SDS011;11810;51.178;3.878;2023-07-13T06:26:19;21.67;;;6.68;;
23282;SDS011;11810;51.178;3.878;2023-07-13T06:28:46;21.40;;;6.43;;
23282;SDS011;11810;51.178;3.878;2023-07-13T06:31:12;25.58;;;6.75;;
23282;SDS011;11810;51.178;3.878;2023-07-13T06:33:39;21.55;;;6.28;;
23282;SDS011;11810;51.178;3.878;2023-07-13T06:36:06;22.80;;;6.28;;
23282;SDS011;11810;51.178;3.878;2023-07-13T06:38:33;24.95;;;5.63;;
23282;SDS011;11810;51.178;3.878;2023-07-13T06:40:59;22.15;;;5.82;;
23282;SDS011;11810;51.178;3.878;2023-07-13T06:43:25;23.75;;;6.43;;
23282;SDS011;11810;51.178;3.878;2023-07-13T06:45:51;22.08;;;5.93;;
23282;SDS011;11810;51.178;3.878;2023-07-13T06:48:19;18.67;;;6.18;;
23282;SDS011;11810;51.178;3.878;2023-07-13T06:50:46;18.75;;;5.75;;
23282;SDS011;11810;51.178;3.878;2023-07-13T06:53:13;20.58;;;6.25;;
23282;SDS011;11810;51.178;3.878;2023-07-13T06:55:39;27.88;;;7.13;;
23282;SDS011;11810;51.178;3.878;2023-07-13T06:58:05;26.52;;;7.03;;
23282;SDS011;11810;51.178;3.878;2023-07-13T07:00:32;22.48;;;6.10;;
23282;SDS011;11810;51.178;3.878;2023-07-13T07:02:58;17.88;;;6.38;;
23282;SDS011;11810;51.178;3.878;2023-07-13T07:05:24;18.13;;;6.95;;
23282;SDS011;11810;51.178;3.878;2023-07-13T07:07:51;19.73;;;5.97;;
23282;SDS011;11810;51.178;3.878;2023-07-13T07:10:18;19.35;;;5.07;;
23282;SDS011;11810;51.178;3.878;2023-07-13T07:12:45;18.75;;;5.10;;
23282;SDS011;11810;51.178;3.878;2023-07-13T07:15:11;18.15;;;5.55;;
23282;SDS011;11810;51.178;3.878;2023-07-13T07:17:37;19.15;;;5.47;;
23282;SDS011;11810;51.178;3.878;2023-07-13T07:20:03;19.77;;;5.82;;
23282;SDS011;11810;51.178;3.878;2023-07-13T07:22:30;21.55;;;5.57;;
23282;SDS011;11810;51.178;3.878;2023-07-13T07:24:56;20.95;;;5.60;;
23282;SDS011;11810;51.178;3.878;2023-07-13T07:27:23;19.25;;;5.60;;
23282;SDS011;11810;51.178;3.878;2023-07-13T07:29:49;14.98;;;5.20;;
23282;SDS011;11810;51.178;3.878;2023-07-13T07:32:15;16.88;;;5.32;;
23282;SDS011;11810;51.178;3.878;2023-07-13T07:34:41;18.35;;;5.18;;
23282;SDS011;11810;51.178;3.878;2023-07-13T07:37:10;23.80;;;5.32;;
23282;SDS011;11810;51.178;3.878;2023-07-13T07:39:37;16.58;;;3.92;;
23282;SDS011;11810;51.178;3.878;2023-07-13T07:42:03;15.50;;;3.95;;
23282;SDS011;11810;51.178;3.878;2023-07-13T07:44:33;16.50;;;4.10;;
23282;SDS011;11810;51.178;3.878;2023-07-13T07:46:59;17.05;;;3.90;;
23282;SDS011;11810;51.178;3.878;2023-07-13T07:49:25;14.45;;;4.88;;
23282;SDS011;11810;51.178;3.878;2023-07-13T07:51:51;16.17;;;4.15;;
23282;SDS011;11810;51.178;3.878;2023-07-13T07:54:17;13.77;;;3.38;;
23282;SDS011;11810;51.178;3.878;2023-07-13T07:56:43;14.75;;;3.80;;
23282;SDS011;11810;51.178;3.878;2023-07-13T07:59:09;19.77;;;4.28;;
23282;SDS011;11810;51.178;3.878;2023-07-13T08:01:35;14.88;;;3.53;;
23282;SDS011;11810;51.178;3.878;2023-07-13T08:04:01;14.20;;;3.00;;
23282;SDS011;11810;51.178;3.878;2023-07-13T08:06:27;17.20;;;4.93;;
23282;SDS011;11810;51.178;3.878;2023-07-13T08:08:54;16.75;;;4.85;;
23282;SDS011;11810;51.178;3.878;2023-07-13T08:11:20;13.68;;;4.72;;
23282;SDS011;11810;51.178;3.878;2023-07-13T08:13:47;14.70;;;4.13;;
23282;SDS011;11810;51.178;3.878;2023-07-13T08:16:14;13.07;;;3.53;;
23282;SDS011;11810;51.178;3.878;2023-07-13T08:18:40;14.15;;;3.63;;
23282;SDS011;11810;51.178;3.878;2023-07-13T08:21:06;9.00;;;3.03;;
23282;SDS011;11810;51.178;3.878;2023-07-13T08:23:33;17.55;;;4.70;;
23282;SDS011;11810;51.178;3.878;2023-07-13T08:26:00;15.27;;;4.00;;
23282;SDS011;11810;51.178;3.878;2023-07-13T08:28:27;10.35;;;2.50;;
23282;SDS011;11810;51.178;3.878;2023-07-13T08:30:54;9.00;;;2.60;;
23282;SDS011;11810;51.178;3.878;2023-07-13T08:33:20;7.13;;;2.38;;
23282;SDS011;11810;51.178;3.878;2023-07-13T08:35:49;7.30;;;2.33;;
23282;SDS011;11810;51.178;3.878;2023-07-13T08:38:16;6.85;;;2.65;;
23282;SDS011;11810;51.178;3.878;2023-07-13T08:40:43;6.40;;;2.67;;
23282;SDS011;11810;51.178;3.878;2023-07-13T08:43:13;8.05;;;2.38;;
23282;SDS011;11810;51.178;3.878;2023-07-13T08:45:52;12.90;;;2.97;;
23282;SDS011;11810;51.178;3.878;2023-07-13T08:48:35;8.57;;;2.38;;
23282;SDS011;11810;51.178;3.878;2023-07-13T08:51:16;7.80;;;2.60;;
23282;SDS011;11810;51.178;3.878;2023-07-13T08:54:09;9.68;;;2.80;;
23282;SDS011;11810;51.178;3.878;2023-07-13T08:56:40;6.95;;;2.67;;
23282;SDS011;11810;51.178;3.878;2023-07-13T08:59:11;8.75;;;2.42;;
23282;SDS011;11810;51.178;3.878;2023-07-13T09:04:32;7.67;;;1.93;;
23282;SDS011;11810;51.178;3.878;2023-07-13T09:07:09;7.55;;;2.15;;
23282;SDS011;11810;51.178;3.878;2023-07-13T09:15:17;10.57;;;2.17;;
23282;SDS011;11810;51.178;3.878;2023-07-13T09:17:59;9.43;;;2.38;;
23282;SDS011;11810;51.178;3.878;2023-07-13T09:20:36;8.27;;;2.40;;
23282;SDS011;11810;51.178;3.878;2023-07-13T09:23:09;7.10;;;2.53;;
23282;SDS011;11810;51.178;3.878;2023-07-13T09:25:43;6.70;;;1.95;;
23282;SDS011;11810;51.178;3.878;2023-07-13T09:28:23;11.90;;;2.20;;
23282;SDS011;11810;51.178;3.878;2023-07-13T09:30:53;8.93;;;2.10;;
23282;SDS011;11810;51.178;3.878;2023-07-13T09:33:40;4.85;;;2.20;;
23282;SDS011;11810;51.178;3.878;2023-07-13T09:39:37;8.43;;;2.25;;
23282;SDS011;11810;51.178;3.878;2023-07-13T09:41:50;9.63;;;2.80;;
23282;SDS011;11810;51.178;3.878;2023-07-13T09:44:51;9.70;;;2.47;;
23282;SDS011;11810;51.178;3.878;2023-07-13T09:47:23;7.07;;;2.70;;
23282;SDS011;11810;51.178;3.878;2023-07-13T09:49:56;13.57;;;3.90;;
23282;SDS011;11810;51.178;3.878;2023-07-13T09:52:23;15.38;;;8.82;;
23282;SDS011;11810;51.178;3.878;2023-07-13T09:54:50;12.02;;;5.13;;
23282;SDS011;11810;51.178;3.878;2023-07-13T09:57:22;8.00;;;2.85;;
23282;SDS011;11810;51.178;3.878;2023-07-13T09:59:49;6.80;;;2.40;;
23282;SDS011;11810;51.178;3.878;2023-07-13T10:02:23;6.45;;;1.80;;
23282;SDS011;11810;51.178;3.878;2023-07-13T10:04:57;8.13;;;1.95;;
23282;SDS011;11810;51.178;3.878;2023-07-13T10:07:30;6.15;;;1.88;;
23282;SDS011;11810;51.178;3.878;2023-07-13T10:09:59;5.97;;;2.10;;
23282;SDS011;11810;51.178;3.878;2023-07-13T10:12:26;9.63;;;2.33;;
23282;SDS011;11810;51.178;3.878;2023-07-13T10:14:54;10.32;;;2.08;;
23282;SDS011;11810;51.178;3.878;2023-07-13T10:17:29;7.78;;;2.35;;
23282;SDS011;11810;51.178;3.878;2023-07-13T10:20:03;5.80;;;1.98;;
23282;SDS011;11810;51.178;3.878;2023-07-13T10:22:53;7.47;;;2.28;;
23282;SDS011;11810;51.178;3.878;2023-07-13T10:25:22;25.13;;;6.55;;
23282;SDS011;11810;51.178;3.878;2023-07-13T10:27:51;10.77;;;3.50;;
23282;SDS011;11810;51.178;3.878;2023-07-13T10:30:25;9.85;;;3.20;;
23282;SDS011;11810;51.178;3.878;2023-07-13T10:32:58;10.43;;;4.53;;
23282;SDS011;11810;51.178;3.878;2023-07-13T10:35:27;9.15;;;3.75;;
23282;SDS011;11810;51.178;3.878;2023-07-13T10:38:05;0.47;;;0.47;;
23282;SDS011;11810;51.178;3.878;2023-07-13T10:40:39;0.15;;;0.15;;
23282;SDS011;11810;51.178;3.878;2023-07-13T10:43:14;0.68;;;0.68;;
23282;SDS011;11810;51.178;3.878;2023-07-13T10:45:53;1.90;;;1.25;;
23282;SDS011;11810;51.178;3.878;2023-07-13T10:48:20;0.10;;;0.10;;
23282;SDS011;11810;51.178;3.878;2023-07-13T10:50:49;0.20;;;0.20;;
23282;SDS011;11810;51.178;3.878;2023-07-13T10:53:20;0.22;;;0.22;;
23282;SDS011;11810;51.178;3.878;2023-07-13T10:56:04;0.43;;;0.43;;
23282;SDS011;11810;51.178;3.878;2023-07-13T10:58:40;0.03;;;0.03;;
23282;SDS011;11810;51.178;3.878;2023-07-13T11:01:13;0.10;;;0.10;;
23282;SDS011;11810;51.178;3.878;2023-07-13T11:08:57;1.30;;;1.15;;
23282;SDS011;11810;51.178;3.878;2023-07-13T11:13:56;0.20;;;0.20;;
23282;SDS011;11810;51.178;3.878;2023-07-13T11:16:35;4.47;;;2.72;;
23282;SDS011;11810;51.178;3.878;2023-07-13T11:24:52;0.22;;;0.22;;
23282;SDS011;11810;51.178;3.878;2023-07-13T11:27:43;1.48;;;1.38;;
23282;SDS011;11810;51.178;3.878;2023-07-13T11:33:08;2.53;;;1.90;;
23282;SDS011;11810;51.178;3.878;2023-07-13T11:35:41;0.80;;;0.80;;
23282;SDS011;11810;51.178;3.878;2023-07-13T11:38:14;0.35;;;0.35;;
23282;SDS011;11810;51.178;3.878;2023-07-13T11:40:46;0.08;;;0.08;;
23282;SDS011;11810;51.178;3.878;2023-07-13T11:43:15;0.00;;;0.00;;
23282;SDS011;11810;51.178;3.878;2023-07-13T11:45:42;0.00;;;0.00;;
23282;SDS011;11810;51.178;3.878;2023-07-13T11:48:23;9.35;;;3.42;;
23282;SDS011;11810;51.178;3.878;2023-07-13T11:50:57;8.98;;;3.47;;
23282;SDS011;11810;51.178;3.878;2023-07-13T11:53:28;7.63;;;3.30;;
23282;SDS011;11810;51.178;3.878;2023-07-13T11:56:01;8.82;;;3.13;;
23282;SDS011;11810;51.178;3.878;2023-07-13T11:58:27;5.60;;;2.28;;
23282;SDS011;11810;51.178;3.878;2023-07-13T12:00:53;7.43;;;2.70;;
23282;SDS011;11810;51.178;3.878;2023-07-13T12:03:23;6.68;;;2.40;;
23282;SDS011;11810;51.178;3.878;2023-07-13T12:08:37;5.07;;;2.40;;
23282;SDS011;11810;51.178;3.878;2023-07-13T12:11:09;7.82;;;2.45;;
23282;SDS011;11810;51.178;3.878;2023-07-13T12:13:43;7.95;;;2.40;;
23282;SDS011;11810;51.178;3.878;2023-07-13T12:16:20;7.90;;;3.03;;
23282;SDS011;11810;51.178;3.878;2023-07-13T12:18:51;7.88;;;4.07;;
23282;SDS011;11810;51.178;3.878;2023-07-13T12:21:18;10.10;;;4.60;;
23282;SDS011;11810;51.178;3.878;2023-07-13T12:23:56;19.10;;;8.18;;
23282;SDS011;11810;51.178;3.878;2023-07-13T12:26:22;7.68;;;3.25;;
23282;SDS011;11810;51.178;3.878;2023-07-13T12:28:49;8.10;;;2.95;;
23282;SDS011;11810;51.178;3.878;2023-07-13T12:31:29;8.68;;;2.95;;
23282;SDS011;11810;51.178;3.878;2023-07-13T12:34:07;12.75;;;6.35;;
23282;SDS011;11810;51.178;3.878;2023-07-13T12:36:37;15.30;;;8.82;;
23282;SDS011;11810;51.178;3.878;2023-07-13T12:39:34;16.75;;;6.95;;
23282;SDS011;11810;51.178;3.878;2023-07-13T12:42:29;12.70;;;4.18;;
23282;SDS011;11810;51.178;3.878;2023-07-13T12:47:26;9.73;;;4.35;;
23282;SDS011;11810;51.178;3.878;2023-07-13T12:49:54;13.77;;;5.13;;
23282;SDS011;11810;51.178;3.878;2023-07-13T12:52:22;13.73;;;6.22;;
23282;SDS011;11810;51.178;3.878;2023-07-13T12:55:19;9.23;;;3.55;;
23282;SDS011;11810;51.178;3.878;2023-07-13T13:00:22;9.77;;;3.05;;
23282;SDS011;11810;51.178;3.878;2023-07-13T13:03:15;8.68;;;2.53;;
23282;SDS011;11810;51.178;3.878;2023-07-13T13:05:44;6.05;;;1.95;;
23282;SDS011;11810;51.178;3.878;2023-07-13T13:08:11;3.20;;;2.03;;
23282;SDS011;11810;51.178;3.878;2023-07-13T13:10:37;7.90;;;2.67;;
23282;SDS011;11810;51.178;3.878;2023-07-13T13:13:04;7.85;;;2.72;;
23282;SDS011;11810;51.178;3.878;2023-07-13T13:15:30;8.02;;;2.70;;
23282;SDS011;11810;51.178;3.878;2023-07-13T13:17:56;11.70;;;2.50;;
23282;SDS011;11810;51.178;3.878;2023-07-13T13:20:24;8.77;;;3.05;;
23282;SDS011;11810;51.178;3.878;2023-07-13T13:22:51;10.43;;;3.03;;
23282;SDS011;11810;51.178;3.878;2023-07-13T13:25:17;9.02;;;2.75;;
23282;SDS011;11810;51.178;3.878;2023-07-13T13:27:45;16.48;;;5.05;;
23282;SDS011;11810;51.178;3.878;2023-07-13T13:30:12;18.98;;;6.97;;
23282;SDS011;11810;51.178;3.878;2023-07-13T13:32:46;26.95;;;11.35;;
23282;SDS011;11810;51.178;3.878;2023-07-13T13:35:14;13.82;;;7.28;;
23282;SDS011;11810;51.178;3.878;2023-07-13T13:37:41;11.88;;;4.57;;
23282;SDS011;11810;51.178;3.878;2023-07-13T13:40:17;8.48;;;2.92;;
23282;SDS011;11810;51.178;3.878;2023-07-13T13:42:45;6.38;;;2.35;;
23282;SDS011;11810;51.178;3.878;2023-07-13T13:45:11;6.57;;;2.45;;
23282;SDS011;11810;51.178;3.878;2023-07-13T13:47:38;7.90;;;2.38;;
23282;SDS011;11810;51.178;3.878;2023-07-13T13:50:16;5.88;;;1.80;;
23282;SDS011;11810;51.178;3.878;2023-07-13T13:52:47;6.72;;;1.83;;
23282;SDS011;11810;51.178;3.878;2023-07-13T13:57:40;8.63;;;2.60;;
23282;SDS011;11810;51.178;3.878;2023-07-13T14:00:08;6.93;;;2.28;;
23282;SDS011;11810;51.178;3.878;2023-07-13T14:02:40;8.43;;;2.20;;
23282;SDS011;11810;51.178;3.878;2023-07-13T14:05:12;6.35;;;1.92;;
23282;SDS011;11810;51.178;3.878;2023-07-13T14:07:40;7.55;;;2.13;;
23282;SDS011;11810;51.178;3.878;2023-07-13T14:10:16;7.95;;;2.60;;
23282;SDS011;11810;51.178;3.878;2023-07-13T14:12:44;7.32;;;2.42;;
23282;SDS011;11810;51.178;3.878;2023-07-13T14:15:23;10.45;;;2.20;;
23282;SDS011;11810;51.178;3.878;2023-07-13T14:17:51;10.73;;;2.50;;
23282;SDS011;11810;51.178;3.878;2023-07-13T14:20:18;9.68;;;2.13;;
23282;SDS011;11810;51.178;3.878;2023-07-13T14:22:47;5.65;;;1.83;;
23282;SDS011;11810;51.178;3.878;2023-07-13T14:25:15;6.07;;;2.38;;
23282;SDS011;11810;51.178;3.878;2023-07-13T14:27:42;10.55;;;2.72;;
23282;SDS011;11810;51.178;3.878;2023-07-13T14:30:19;4.30;;;1.90;;
23282;SDS011;11810;51.178;3.878;2023-07-13T14:32:46;5.97;;;2.28;;
23282;SDS011;11810;51.178;3.878;2023-07-13T14:35:15;6.45;;;1.83;;
23282;SDS011;11810;51.178;3.878;2023-07-13T14:37:43;6.80;;;2.72;;
23282;SDS011;11810;51.178;3.878;2023-07-13T14:42:38;10.15;;;2.20;;
23282;SDS011;11810;51.178;3.878;2023-07-13T14:45:04;10.25;;;2.20;;
23282;SDS011;11810;51.178;3.878;2023-07-13T14:47:30;10.10;;;2.20;;
23282;SDS011;11810;51.178;3.878;2023-07-13T14:49:56;8.60;;;2.42;;
23282;SDS011;11810;51.178;3.878;2023-07-13T14:52:22;2.78;;;1.77;;
23282;SDS011;11810;51.178;3.878;2023-07-13T14:54:50;4.22;;;1.58;;
23282;SDS011;11810;51.178;3.878;2023-07-13T14:57:17;6.72;;;1.80;;
23282;SDS011;11810;51.178;3.878;2023-07-13T14:59:45;7.00;;;2.10;;
23282;SDS011;11810;51.178;3.878;2023-07-13T15:02:18;3.20;;;2.00;;
23282;SDS011;11810;51.178;3.878;2023-07-13T15:04:47;8.27;;;1.98;;
23282;SDS011;11810;51.178;3.878;2023-07-13T15:07:13;10.05;;;3.70;;
23282;SDS011;11810;51.178;3.878;2023-07-13T15:09:41;8.85;;;2.95;;
23282;SDS011;11810;51.178;3.878;2023-07-13T15:12:07;5.20;;;2.10;;
23282;SDS011;11810;51.178;3.878;2023-07-13T15:14:33;9.40;;;3.80;;
23282;SDS011;11810;51.178;3.878;2023-07-13T15:16:59;9.10;;;4.22;;
23282;SDS011;11810;51.178;3.878;2023-07-13T15:19:25;5.28;;;2.55;;
23282;SDS011;11810;51.178;3.878;2023-07-13T15:21:52;7.97;;;3.65;;
23282;SDS011;11810;51.178;3.878;2023-07-13T15:24:22;16.13;;;4.50;;
23282;SDS011;11810;51.178;3.878;2023-07-13T15:26:49;7.93;;;3.30;;
23282;SDS011;11810;51.178;3.878;2023-07-13T15:29:16;8.45;;;2.88;;
23282;SDS011;11810;51.178;3.878;2023-07-13T15:31:42;4.35;;;2.00;;